Time;durP1;ratioP1;P1;durP2;ratioP2;P2;SDS_P1;SDS_P2;PMS_P1;PMS_P2;Temp;Humidity;BMP_temperature;BMP_pressure;BME280_temperature;BME280_humidity;BME280_pressure;Samples;Min_cycle;Max_cycle;Signal;HPM_P1;HPM_P2
2024/01/25 00:00:45;;;;;;;10.23;5.03;;;10.20;79.00;;;;;;20992766;28;20611;-55
2024/01/25 00:10:46;;;;;;;7.07;4.72;;;10.10;79.20;;;;;;20992596;28;20043;-56
2024/01/25 00:20:47;;;;;;;5.35;4.43;;;10.00;79.20;;;;;;20996257;28;20063;-55
2024/01/25 00:30:50;;;;;;;6.80;4.70;;;9.80;79.20;;;;;;21006209;28;20033;-55
2024/01/25 00:40:51;;;;;;;7.15;4.45;;;9.80;79.00;;;;;;21005689;28;20020;-56
2024/01/25 00:50:53;;;;;;;6.80;4.35;;;9.70;79.10;;;;;;21004679;28;20044;-55
2024/01/25 01:00:54;;;;;;;6.75;5.22;;;9.50;79.10;;;;;;21004242;28;20024;-56
2024/01/25 01:10:55;;;;;;;6.90;5.75;;;9.50;79.10;;;;;;21003367;28;20033;-55
2024/01/25 01:20:56;;;;;;;5.95;4.80;;;9.40;79.00;;;;;;21003946;28;20036;-54
2024/01/25 01:30:59;;;;;;;6.78;4.97;;;9.30;78.90;;;;;;21002396;28;20440;-55
2024/01/25 01:41:00;;;;;;;8.73;5.07;;;9.20;79.00;;;;;;21002238;28;20102;-55
2024/01/25 01:51:01;;;;;;;5.95;4.55;;;9.10;79.20;;;;;;21000315;28;20123;-56
2024/01/25 02:01:02;;;;;;;5.03;4.35;;;9.10;79.40;;;;;;20999249;28;20028;-55
2024/01/25 02:11:03;;;;;;;8.40;5.10;;;9.00;79.40;;;;;;20998473;28;20097;-55
2024/01/25 02:21:24;;;;;;;5.30;4.40;;;8.90;79.10;;;;;;20997819;28;20432;-54
2024/01/25 02:31:45;;;;;;;6.30;4.47;;;8.70;78.50;;;;;;20996645;28;20033;-55
2024/01/25 02:41:46;;;;;;;6.80;4.80;;;8.50;78.40;;;;;;20995217;28;20097;-55
2024/01/25 02:51:47;;;;;;;6.45;4.95;;;8.40;78.70;;;;;;20995373;28;20072;-55
2024/01/25 03:01:49;;;;;;;7.10;5.43;;;8.30;78.40;;;;;;20996111;28;20470;-56
2024/01/25 03:11:50;;;;;;;7.13;5.28;;;8.20;78.70;;;;;;20995664;28;20112;-55
2024/01/25 03:21:52;;;;;;;8.00;5.03;;;8.20;79.00;;;;;;20994222;28;20435;-55
2024/01/25 03:31:54;;;;;;;7.38;5.32;;;8.20;79.10;;;;;;20993563;28;20064;-55
2024/01/25 03:41:55;;;;;;;7.00;5.13;;;8.20;79.10;;;;;;20994563;28;20048;-55
2024/01/25 03:51:56;;;;;;;6.40;4.28;;;8.10;78.60;;;;;;20992671;28;20052;-56
2024/01/25 04:01:57;;;;;;;5.90;4.50;;;7.90;78.60;;;;;;21007108;28;20369;-55
2024/01/25 04:12:00;;;;;;;5.40;4.10;;;7.80;78.70;;;;;;21007695;28;20060;-55
2024/01/25 04:22:01;;;;;;;7.20;4.40;;;7.80;78.80;;;;;;21008454;28;20043;-56
2024/01/25 04:32:02;;;;;;;6.80;4.53;;;7.80;78.70;;;;;;21007655;28;20482;-57
2024/01/25 04:42:03;;;;;;;6.40;4.32;;;7.70;78.60;;;;;;21007054;28;20029;-55
2024/01/25 04:52:04;;;;;;;6.45;4.53;;;7.60;78.50;;;;;;21004823;28;20057;-56
2024/01/25 05:02:06;;;;;;;6.68;4.93;;;7.70;78.40;;;;;;21005477;28;20024;-55
2024/01/25 05:12:07;;;;;;;7.50;4.70;;;7.60;78.50;;;;;;21002417;28;20033;-56
2024/01/25 05:22:08;;;;;;;8.18;5.82;;;7.60;78.70;;;;;;21002895;28;20143;-55
2024/01/25 05:32:10;;;;;;;11.43;6.78;;;7.60;78.70;;;;;;21001856;28;20083;-56
2024/01/25 05:42:12;;;;;;;7.97;4.88;;;7.70;78.50;;;;;;21000907;28;20430;-56
2024/01/25 05:52:13;;;;;;;7.65;5.22;;;7.80;78.10;;;;;;21000296;28;20067;-56
2024/01/25 06:02:14;;;;;;;6.50;4.72;;;7.70;78.30;;;;;;21000175;28;20048;-55
2024/01/25 06:12:15;;;;;;;6.05;4.55;;;7.60;78.10;;;;;;20999503;28;20397;-56
2024/01/25 06:22:16;;;;;;;6.55;4.55;;;7.40;77.90;;;;;;20998251;28;20029;-56
2024/01/25 06:32:19;;;;;;;7.20;5.15;;;7.40;78.00;;;;;;20997960;28;20181;-58
2024/01/25 06:42:21;;;;;;;5.93;4.72;;;7.30;77.90;;;;;;20995932;28;20078;-57
2024/01/25 06:52:22;;;;;;;7.65;4.93;;;7.20;78.00;;;;;;20995470;28;20122;-56
2024/01/25 07:02:24;;;;;;;7.07;4.78;;;7.20;78.40;;;;;;20994767;28;20116;-55
2024/01/25 07:12:25;;;;;;;7.30;4.80;;;7.20;78.40;;;;;;20995435;28;20385;-55
2024/01/25 07:22:26;;;;;;;8.82;5.20;;;7.10;78.50;;;;;;20995337;28;20020;-57
2024/01/25 07:32:29;;;;;;;9.50;4.38;;;7.10;78.10;;;;;;21002229;28;20058;-57
2024/01/25 07:42:30;;;;;;;7.63;5.32;;;7.00;77.90;;;;;;21010904;28;20103;-55
2024/01/25 07:52:31;;;;;;;10.27;8.48;;;7.00;78.20;;;;;;21009755;28;20067;-56
2024/01/25 08:02:32;;;;;;;8.50;5.70;;;7.00;78.50;;;;;;21008652;28;20082;-56
2024/01/25 08:12:33;;;;;;;20.13;15.32;;;7.20;78.50;;;;;;21008673;28;20116;-55
2024/01/25 08:22:34;;;;;;;18.38;13.18;;;7.30;78.30;;;;;;21006625;28;20036;-56
2024/01/25 08:32:37;;;;;;;10.63;6.47;;;7.40;78.10;;;;;;21006566;28;20040;-57
2024/01/25 08:42:40;;;;;;;16.52;10.43;;;7.70;77.80;;;;;;21006070;28;20048;-57
2024/01/25 08:52:41;;;;;;;9.45;6.57;;;8.00;77.40;;;;;;21004061;28;20056;-56
2024/01/25 09:02:42;;;;;;;9.07;6.28;;;8.10;76.40;;;;;;21005550;28;20378;-55
2024/01/25 09:12:43;;;;;;;10.98;6.93;;;8.20;75.40;;;;;;21004038;28;20123;-56
2024/01/25 09:22:44;;;;;;;7.85;5.45;;;8.30;75.30;;;;;;21003535;28;20044;-55
2024/01/25 09:32:45;;;;;;;8.40;6.18;;;8.70;75.00;;;;;;21000888;28;20044;-55
2024/01/25 09:42:48;;;;;;;11.25;7.20;;;9.00;74.70;;;;;;21000057;28;20083;-56
2024/01/25 09:52:56;;;;;;;12.45;8.30;;;9.30;74.30;;;;;;20998891;28;20519;-55
2024/01/25 10:02:57;;;;;;;23.15;10.90;;;9.70;73.40;;;;;;20998856;28;20103;-55
2024/01/25 10:13:00;;;;;;;15.48;9.95;;;10.10;72.90;;;;;;20996136;28;20047;-55
2024/01/25 10:23:01;;;;;;;11.60;8.43;;;10.30;72.50;;;;;;20997521;28;20090;-54
2024/01/25 10:33:04;;;;;;;53.38;15.40;;;10.90;71.70;;;;;;20996357;28;20040;-54
2024/01/25 10:43:08;;;;;;;14.25;9.35;;;11.40;70.30;;;;;;20997148;28;20473;-57
2024/01/25 10:53:11;;;;;;;16.10;10.53;;;11.80;69.40;;;;;;20993837;28;20459;-55
2024/01/25 11:03:14;;;;;;;19.52;9.43;;;12.20;68.70;;;;;;20994528;28;20422;-54
2024/01/25 11:13:16;;;;;;;11.18;6.95;;;12.60;67.20;;;;;;20896244;28;20509;-54
2024/01/25 11:23:17;;;;;;;14.57;7.80;;;12.80;66.00;;;;;;20881020;28;20029;-56
2024/01/25 11:33:19;;;;;;;17.42;9.00;;;13.10;65.10;;;;;;20910209;28;20033;-55
2024/01/25 11:43:21;;;;;;;15.88;9.30;;;13.40;64.50;;;;;;20909478;28;20521;-55
2024/01/25 11:53:22;;;;;;;21.25;11.00;;;13.70;64.20;;;;;;20909751;28;20053;-55
2024/01/25 12:03:25;;;;;;;19.73;13.70;;;14.10;63.80;;;;;;20908727;28;20029;-55
2024/01/25 12:13:26;;;;;;;17.15;10.93;;;14.20;64.80;;;;;;20909899;28;20454;-56
2024/01/25 12:23:40;;;;;;;16.48;9.55;;;14.40;64.60;;;;;;20923865;28;20036;-54
2024/01/25 12:33:43;;;;;;;16.00;10.05;;;14.70;63.20;;;;;;20922812;28;20033;-57
2024/01/25 12:43:43;;;;;;;14.43;9.07;;;14.80;63.30;;;;;;20922215;28;20021;-56
2024/01/25 12:53:45;;;;;;;19.80;12.20;;;14.90;63.30;;;;;;20921786;28;20050;-56
2024/01/25 13:03:46;;;;;;;13.55;7.63;;;15.10;62.90;;;;;;20921179;28;20029;-57
2024/01/25 13:13:51;;;;;;;10.13;6.53;;;15.20;61.80;;;;;;20920872;28;20103;-56
2024/01/25 13:23:53;;;;;;;14.90;7.27;;;15.30;61.70;;;;;;20920121;28;20120;-56
2024/01/25 13:33:57;;;;;;;12.98;8.40;;;15.50;61.60;;;;;;20918539;28;20375;-58
2024/01/25 13:44:00;;;;;;;22.95;9.75;;;15.60;62.30;;;;;;20917510;28;20075;-56
2024/01/25 13:54:04;;;;;;;15.80;11.02;;;15.70;62.40;;;;;;20916801;28;20048;-57
2024/01/25 14:04:07;;;;;;;18.40;9.98;;;15.80;62.90;;;;;;20916469;28;20402;-57
2024/01/25 14:14:10;;;;;;;11.88;9.60;;;15.80;62.90;;;;;;20915424;28;20039;-57
2024/01/25 14:24:12;;;;;;;18.15;10.05;;;15.80;62.40;;;;;;20914355;28;20135;-57
2024/01/25 14:34:15;;;;;;;14.00;8.63;;;15.90;61.60;;;;;;20915124;28;20041;-57
2024/01/25 14:44:18;;;;;;;10.23;7.60;;;16.00;60.50;;;;;;20913116;28;20041;-57
2024/01/25 14:54:19;;;;;;;15.32;8.95;;;16.10;60.20;;;;;;20913289;28;20513;-58
2024/01/25 15:04:20;;;;;;;13.93;7.30;;;16.20;59.70;;;;;;20912807;28;20507;-57
2024/01/25 15:14:21;;;;;;;15.35;7.47;;;16.20;59.60;;;;;;20912932;28;20060;-55
2024/01/25 15:24:22;;;;;;;13.98;8.00;;;16.10;60.20;;;;;;20913062;28;20438;-57
2024/01/25 15:34:26;;;;;;;14.57;8.07;;;15.90;61.30;;;;;;20911063;28;20093;-57
2024/01/25 15:44:28;;;;;;;14.07;7.95;;;15.90;61.90;;;;;;20910304;28;20029;-56
2024/01/25 15:54:31;;;;;;;12.45;7.38;;;15.80;62.60;;;;;;20918616;28;20073;-56
2024/01/25 16:04:32;;;;;;;16.67;9.18;;;15.80;62.50;;;;;;20925683;28;20039;-57
2024/01/25 16:14:35;;;;;;;13.40;6.65;;;15.70;63.10;;;;;;20925109;28;20537;-56
2024/01/25 16:24:38;;;;;;;12.27;7.13;;;15.70;63.00;;;;;;20925611;28;20478;-56
2024/01/25 16:34:39;;;;;;;7.40;4.07;;;15.60;62.90;;;;;;20923874;28;20075;-57
2024/01/25 16:44:43;;;;;;;12.80;6.68;;;15.70;63.60;;;;;;20922999;28;20490;-55
2024/01/25 16:54:44;;;;;;;14.82;7.10;;;15.70;63.10;;;;;;20924141;28;20406;-56
2024/01/25 17:04:46;;;;;;;16.83;9.07;;;15.50;63.90;;;;;;20919621;28;20079;-58
2024/01/25 17:14:47;;;;;;;10.57;6.75;;;15.40;64.70;;;;;;20940533;28;20091;-55
2024/01/25 17:24:50;;;;;;;21.40;9.00;;;15.30;65.80;;;;;;21002881;28;20036;-57
2024/01/25 17:34:51;;;;;;;12.73;8.45;;;15.30;66.70;;;;;;20990758;28;20044;-57
2024/01/25 17:44:54;;;;;;;17.70;9.57;;;15.20;67.20;;;;;;20994063;28;20032;-56
2024/01/25 17:54:55;;;;;;;15.25;9.60;;;15.20;67.90;;;;;;20916453;28;20048;-55
2024/01/25 18:04:59;;;;;;;23.58;8.98;;;15.40;67.80;;;;;;20957822;28;20113;-53
2024/01/25 18:15:02;;;;;;;30.38;14.15;;;15.50;70.80;;;;;;20997880;28;20040;-59
2024/01/25 18:25:04;;;;;;;28.92;10.80;;;15.80;67.10;;;;;;20996993;28;20036;-59
2024/01/25 18:35:07;;;;;;;31.10;13.83;;;16.70;65.60;;;;;;20996203;28;20051;-57
2024/01/25 18:45:08;;;;;;;29.52;11.82;;;15.70;66.40;;;;;;20996796;28;20041;-57
2024/01/25 18:55:12;;;;;;;25.23;11.98;;;14.70;69.50;;;;;;20994820;28;20051;-59
2024/01/25 19:05:15;;;;;;;21.10;10.83;;;14.30;71.00;;;;;;20996539;28;20391;-59
2024/01/25 19:15:19;;;;;;;;;;;14.00;72.20;;;;;;20994678;28;20097;-54
2024/01/25 19:25:22;;;;;;;23.70;9.90;;;13.80;72.70;;;;;;20992913;28;19908;-54
2024/01/25 19:35:26;;;;;;;19.02;10.68;;;13.80;72.50;;;;;;20993199;28;20119;-55
2024/01/25 19:45:29;;;;;;;;;;;13.60;73.20;;;;;;20993291;28;20077;-56
2024/01/25 19:55:30;;;;;;;16.50;8.88;;;13.20;74.20;;;;;;20992565;28;19960;-56
2024/01/25 20:05:33;;;;;;;13.13;7.88;;;13.00;74.90;;;;;;20990593;28;20036;-55
2024/01/25 20:15:36;;;;;;;28.25;14.00;;;13.00;74.50;;;;;;20987016;28;20036;-55
2024/01/25 20:25:37;;;;;;;16.40;8.40;;;12.80;74.60;;;;;;20982666;28;20048;-56
2024/01/25 20:35:39;;;;;;;16.70;8.10;;;12.70;74.80;;;;;;20992042;28;20485;-54
2024/01/25 20:45:42;;;;;;;17.35;8.27;;;12.50;75.10;;;;;;21006331;28;20024;-54
2024/01/25 20:55:45;;;;;;;13.07;8.63;;;12.30;75.30;;;;;;21004954;28;20056;-54
2024/01/25 21:05:46;;;;;;;63.75;32.05;;;12.20;75.40;;;;;;21003908;28;20551;-57
2024/01/25 21:15:49;;;;;;;15.00;8.40;;;12.10;75.70;;;;;;21003322;28;20036;-54
2024/01/25 21:25:51;;;;;;;16.83;8.65;;;11.90;76.00;;;;;;21003565;28;20029;-54
2024/01/25 21:35:52;;;;;;;10.60;7.70;;;11.80;76.20;;;;;;21001682;28;20044;-55
2024/01/25 21:45:55;;;;;;;13.25;8.45;;;11.70;76.50;;;;;;20999608;28;20059;-54
2024/01/25 21:55:58;;;;;;;18.60;10.35;;;11.70;76.60;;;;;;20998595;28;20115;-54
2024/01/25 22:05:59;;;;;;;13.32;9.00;;;11.60;76.70;;;;;;20999784;28;20106;-55
2024/01/25 22:16:00;;;;;;;14.80;8.90;;;11.50;77.00;;;;;;20997450;28;20052;-56
2024/01/25 22:26:01;;;;;;;11.15;7.70;;;11.30;77.10;;;;;;20997585;28;20028;-55
2024/01/25 22:36:05;;;;;;;14.07;7.15;;;11.20;77.20;;;;;;20997002;28;20102;-54
2024/01/25 22:46:08;;;;;;;12.40;7.90;;;11.00;77.40;;;;;;20996025;28;20113;-54
2024/01/25 22:56:09;;;;;;;11.93;6.85;;;10.90;77.50;;;;;;20995835;28;20082;-54
2024/01/25 23:06:11;;;;;;;10.02;7.65;;;10.80;77.60;;;;;;20996873;28;20524;-54
2024/01/25 23:16:12;;;;;;;16.15;11.82;;;10.70;77.70;;;;;;20994676;28;20037;-54
2024/01/25 23:26:13;;;;;;;11.07;7.13;;;10.60;77.80;;;;;;20995721;28;20029;-54
2024/01/25 23:36:14;;;;;;;10.18;6.95;;;10.50;77.90;;;;;;20995207;28;20047;-56
2024/01/25 23:46:18;;;;;;;10.00;7.00;;;10.50;77.90;;;;;;20994785;28;20044;-54
2024/01/25 23:56:19;;;;;;;10.13;6.95;;;10.30;78.00;;;;;;20993126;28;20048;-54
